sensor_id;sensor_type;location;lat;lon;timestamp;P1;durP1;ratioP1;P2;durP2;ratioP2
63807;SDS011;49961;43.970;22.868;2023-04-24T00:00:43;9.23;;;6.40;;
63807;SDS011;49961;43.970;22.868;2023-04-24T00:01:45;8.30;;;6.33;;
63807;SDS011;49961;43.970;22.868;2023-04-24T00:02:45;7.87;;;6.00;;
63807;SDS011;49961;43.970;22.868;2023-04-24T00:03:48;9.60;;;6.60;;
63807;SDS011;49961;43.970;22.868;2023-04-24T00:04:49;7.80;;;6.47;;
63807;SDS011;49961;43.970;22.868;2023-04-24T00:05:49;7.17;;;6.30;;
63807;SDS011;49961;43.970;22.868;2023-04-24T00:06:51;8.47;;;6.63;;
63807;SDS011;49961;43.970;22.868;2023-04-24T00:07:54;8.13;;;6.43;;
63807;SDS011;49961;43.970;22.868;2023-04-24T00:08:55;12.17;;;6.67;;
63807;SDS011;49961;43.970;22.868;2023-04-24T00:09:55;9.50;;;6.23;;
63807;SDS011;49961;43.970;22.868;2023-04-24T00:10:56;8.50;;;6.80;;
63807;SDS011;49961;43.970;22.868;2023-04-24T00:11:56;10.23;;;6.43;;
63807;SDS011;49961;43.970;22.868;2023-04-24T00:12:57;9.47;;;6.50;;
63807;SDS011;49961;43.970;22.868;2023-04-24T00:13:57;8.27;;;6.40;;
63807;SDS011;49961;43.970;22.868;2023-04-24T00:14:59;10.30;;;6.37;;
63807;SDS011;49961;43.970;22.868;2023-04-24T00:16:00;9.27;;;6.17;;
63807;SDS011;49961;43.970;22.868;2023-04-24T00:17:01;13.07;;;6.47;;
63807;SDS011;49961;43.970;22.868;2023-04-24T00:18:02;9.33;;;6.40;;
63807;SDS011;49961;43.970;22.868;2023-04-24T00:19:02;9.00;;;6.30;;
63807;SDS011;49961;43.970;22.868;2023-04-24T00:20:03;9.33;;;6.20;;
63807;SDS011;49961;43.970;22.868;2023-04-24T00:21:06;8.67;;;6.33;;
63807;SDS011;49961;43.970;22.868;2023-04-24T00:22:07;10.70;;;6.53;;
63807;SDS011;49961;43.970;22.868;2023-04-24T00:23:07;9.53;;;6.03;;
63807;SDS011;49961;43.970;22.868;2023-04-24T00:24:08;9.90;;;6.47;;
63807;SDS011;49961;43.970;22.868;2023-04-24T00:25:09;10.00;;;6.03;;
63807;SDS011;49961;43.970;22.868;2023-04-24T00:26:09;7.60;;;5.63;;
63807;SDS011;49961;43.970;22.868;2023-04-24T00:27:10;9.10;;;6.23;;
63807;SDS011;49961;43.970;22.868;2023-04-24T00:28:10;11.00;;;6.60;;
63807;SDS011;49961;43.970;22.868;2023-04-24T00:29:10;6.93;;;6.13;;
63807;SDS011;49961;43.970;22.868;2023-04-24T00:30:11;6.80;;;5.90;;
63807;SDS011;49961;43.970;22.868;2023-04-24T00:31:11;7.40;;;6.30;;
63807;SDS011;49961;43.970;22.868;2023-04-24T00:32:12;10.33;;;6.93;;
63807;SDS011;49961;43.970;22.868;2023-04-24T00:33:13;8.47;;;5.70;;
63807;SDS011;49961;43.970;22.868;2023-04-24T00:34:14;12.23;;;6.00;;
63807;SDS011;49961;43.970;22.868;2023-04-24T00:35:15;7.50;;;6.20;;
63807;SDS011;49961;43.970;22.868;2023-04-24T00:36:16;8.87;;;6.23;;
63807;SDS011;49961;43.970;22.868;2023-04-24T00:37:16;8.33;;;6.03;;
63807;SDS011;49961;43.970;22.868;2023-04-24T00:38:16;8.57;;;6.13;;
63807;SDS011;49961;43.970;22.868;2023-04-24T00:39:20;8.37;;;5.90;;
63807;SDS011;49961;43.970;22.868;2023-04-24T00:40:21;6.63;;;5.70;;
63807;SDS011;49961;43.970;22.868;2023-04-24T00:41:22;8.40;;;6.30;;
63807;SDS011;49961;43.970;22.868;2023-04-24T00:42:24;7.67;;;5.87;;
63807;SDS011;49961;43.970;22.868;2023-04-24T00:43:25;7.07;;;5.70;;
63807;SDS011;49961;43.970;22.868;2023-04-24T00:44:26;8.97;;;5.47;;
63807;SDS011;49961;43.970;22.868;2023-04-24T00:45:26;8.63;;;6.07;;
63807;SDS011;49961;43.970;22.868;2023-04-24T00:46:27;7.57;;;6.07;;
63807;SDS011;49961;43.970;22.868;2023-04-24T00:47:28;8.33;;;6.17;;
63807;SDS011;49961;43.970;22.868;2023-04-24T00:48:30;7.33;;;6.53;;
63807;SDS011;49961;43.970;22.868;2023-04-24T00:49:31;8.40;;;6.00;;
63807;SDS011;49961;43.970;22.868;2023-04-24T00:50:32;7.50;;;5.97;;
63807;SDS011;49961;43.970;22.868;2023-04-24T00:51:32;6.87;;;5.97;;
63807;SDS011;49961;43.970;22.868;2023-04-24T00:52:33;9.37;;;6.33;;
63807;SDS011;49961;43.970;22.868;2023-04-24T00:53:33;7.37;;;6.40;;
63807;SDS011;49961;43.970;22.868;2023-04-24T00:54:34;9.33;;;6.17;;
63807;SDS011;49961;43.970;22.868;2023-04-24T00:55:35;7.53;;;5.93;;
63807;SDS011;49961;43.970;22.868;2023-04-24T00:56:37;8.40;;;6.53;;
63807;SDS011;49961;43.970;22.868;2023-04-24T00:57:37;7.60;;;6.47;;
63807;SDS011;49961;43.970;22.868;2023-04-24T00:58:38;7.00;;;6.10;;
63807;SDS011;49961;43.970;22.868;2023-04-24T00:59:40;7.27;;;6.03;;
63807;SDS011;49961;43.970;22.868;2023-04-24T01:00:41;8.77;;;7.10;;
63807;SDS011;49961;43.970;22.868;2023-04-24T01:01:43;11.67;;;6.70;;
63807;SDS011;49961;43.970;22.868;2023-04-24T01:02:44;8.77;;;6.90;;
63807;SDS011;49961;43.970;22.868;2023-04-24T01:03:46;10.60;;;7.03;;
63807;SDS011;49961;43.970;22.868;2023-04-24T01:04:46;9.27;;;7.03;;
63807;SDS011;49961;43.970;22.868;2023-04-24T01:05:48;10.57;;;7.30;;
63807;SDS011;49961;43.970;22.868;2023-04-24T01:06:49;10.27;;;7.73;;
63807;SDS011;49961;43.970;22.868;2023-04-24T01:07:50;10.87;;;7.67;;
63807;SDS011;49961;43.970;22.868;2023-04-24T01:08:50;9.23;;;7.90;;
63807;SDS011;49961;43.970;22.868;2023-04-24T01:09:51;8.97;;;7.27;;
63807;SDS011;49961;43.970;22.868;2023-04-24T01:10:52;11.03;;;7.03;;
63807;SDS011;49961;43.970;22.868;2023-04-24T01:11:52;7.70;;;6.80;;
63807;SDS011;49961;43.970;22.868;2023-04-24T01:12:53;8.63;;;7.03;;
63807;SDS011;49961;43.970;22.868;2023-04-24T01:13:54;10.80;;;6.60;;
63807;SDS011;49961;43.970;22.868;2023-04-24T01:14:55;7.20;;;6.50;;
63807;SDS011;49961;43.970;22.868;2023-04-24T01:15:56;7.07;;;6.13;;
63807;SDS011;49961;43.970;22.868;2023-04-24T01:16:57;8.10;;;6.50;;
63807;SDS011;49961;43.970;22.868;2023-04-24T01:17:58;7.53;;;6.77;;
63807;SDS011;49961;43.970;22.868;2023-04-24T01:18:58;7.73;;;6.33;;
63807;SDS011;49961;43.970;22.868;2023-04-24T01:19:59;7.60;;;6.80;;
63807;SDS011;49961;43.970;22.868;2023-04-24T01:21:01;8.50;;;6.57;;
63807;SDS011;49961;43.970;22.868;2023-04-24T01:22:08;10.80;;;6.60;;
63807;SDS011;49961;43.970;22.868;2023-04-24T01:23:10;9.40;;;6.60;;
63807;SDS011;49961;43.970;22.868;2023-04-24T01:24:11;8.37;;;6.13;;
63807;SDS011;49961;43.970;22.868;2023-04-24T01:25:12;8.93;;;6.53;;
63807;SDS011;49961;43.970;22.868;2023-04-24T01:26:16;10.33;;;6.47;;
63807;SDS011;49961;43.970;22.868;2023-04-24T01:27:17;6.80;;;6.10;;
63807;SDS011;49961;43.970;22.868;2023-04-24T01:28:17;9.00;;;6.77;;
63807;SDS011;49961;43.970;22.868;2023-04-24T01:29:18;9.53;;;6.70;;
63807;SDS011;49961;43.970;22.868;2023-04-24T01:30:19;10.13;;;6.97;;
63807;SDS011;49961;43.970;22.868;2023-04-24T01:31:20;9.53;;;6.30;;
63807;SDS011;49961;43.970;22.868;2023-04-24T01:32:20;8.13;;;6.90;;
63807;SDS011;49961;43.970;22.868;2023-04-24T01:33:21;7.30;;;6.00;;
63807;SDS011;49961;43.970;22.868;2023-04-24T01:34:22;9.87;;;6.10;;
63807;SDS011;49961;43.970;22.868;2023-04-24T01:35:22;8.73;;;7.00;;
63807;SDS011;49961;43.970;22.868;2023-04-24T01:36:23;8.33;;;6.10;;
63807;SDS011;49961;43.970;22.868;2023-04-24T01:37:24;7.00;;;6.10;;
63807;SDS011;49961;43.970;22.868;2023-04-24T01:38:24;10.70;;;6.67;;
63807;SDS011;49961;43.970;22.868;2023-04-24T01:39:25;7.07;;;6.10;;
63807;SDS011;49961;43.970;22.868;2023-04-24T01:40:28;9.40;;;6.70;;
63807;SDS011;49961;43.970;22.868;2023-04-24T01:41:29;8.13;;;6.23;;
63807;SDS011;49961;43.970;22.868;2023-04-24T01:42:30;8.23;;;6.50;;
63807;SDS011;49961;43.970;22.868;2023-04-24T01:43:31;10.13;;;6.70;;
63807;SDS011;49961;43.970;22.868;2023-04-24T01:44:33;9.33;;;6.47;;
63807;SDS011;49961;43.970;22.868;2023-04-24T01:45:33;12.40;;;6.60;;
63807;SDS011;49961;43.970;22.868;2023-04-24T01:46:34;8.73;;;6.70;;
63807;SDS011;49961;43.970;22.868;2023-04-24T01:47:35;8.27;;;6.90;;
63807;SDS011;49961;43.970;22.868;2023-04-24T01:48:36;9.13;;;6.83;;
63807;SDS011;49961;43.970;22.868;2023-04-24T01:49:37;10.90;;;7.13;;
63807;SDS011;49961;43.970;22.868;2023-04-24T01:50:38;7.57;;;6.60;;
63807;SDS011;49961;43.970;22.868;2023-04-24T01:51:39;9.80;;;6.50;;
63807;SDS011;49961;43.970;22.868;2023-04-24T01:52:39;10.13;;;6.47;;
63807;SDS011;49961;43.970;22.868;2023-04-24T01:53:40;10.30;;;6.53;;
63807;SDS011;49961;43.970;22.868;2023-04-24T01:54:40;8.57;;;6.63;;
63807;SDS011;49961;43.970;22.868;2023-04-24T01:55:41;8.10;;;6.17;;
63807;SDS011;49961;43.970;22.868;2023-04-24T01:56:42;8.07;;;6.40;;
63807;SDS011;49961;43.970;22.868;2023-04-24T01:57:42;9.70;;;6.30;;
63807;SDS011;49961;43.970;22.868;2023-04-24T01:58:43;8.77;;;6.50;;
63807;SDS011;49961;43.970;22.868;2023-04-24T01:59:44;9.27;;;6.73;;
63807;SDS011;49961;43.970;22.868;2023-04-24T02:00:44;8.33;;;6.87;;
63807;SDS011;49961;43.970;22.868;2023-04-24T02:01:44;9.67;;;6.70;;
63807;SDS011;49961;43.970;22.868;2023-04-24T02:02:45;10.90;;;6.67;;
63807;SDS011;49961;43.970;22.868;2023-04-24T02:03:46;12.17;;;7.07;;
63807;SDS011;49961;43.970;22.868;2023-04-24T02:04:46;6.97;;;6.17;;
63807;SDS011;49961;43.970;22.868;2023-04-24T02:05:47;8.33;;;6.80;;
63807;SDS011;49961;43.970;22.868;2023-04-24T02:06:47;11.13;;;6.73;;
63807;SDS011;49961;43.970;22.868;2023-04-24T02:07:47;6.73;;;6.03;;
63807;SDS011;49961;43.970;22.868;2023-04-24T02:08:48;9.77;;;7.23;;
63807;SDS011;49961;43.970;22.868;2023-04-24T02:09:48;9.50;;;6.73;;
63807;SDS011;49961;43.970;22.868;2023-04-24T02:10:49;9.50;;;6.57;;
63807;SDS011;49961;43.970;22.868;2023-04-24T02:11:49;9.33;;;6.40;;
63807;SDS011;49961;43.970;22.868;2023-04-24T02:12:50;10.60;;;6.90;;
63807;SDS011;49961;43.970;22.868;2023-04-24T02:13:50;8.77;;;6.40;;
63807;SDS011;49961;43.970;22.868;2023-04-24T02:14:51;9.37;;;6.60;;
63807;SDS011;49961;43.970;22.868;2023-04-24T02:15:51;8.20;;;6.80;;
63807;SDS011;49961;43.970;22.868;2023-04-24T02:16:52;11.07;;;7.17;;
63807;SDS011;49961;43.970;22.868;2023-04-24T02:17:53;9.27;;;6.83;;
63807;SDS011;49961;43.970;22.868;2023-04-24T02:18:53;7.67;;;6.53;;
63807;SDS011;49961;43.970;22.868;2023-04-24T02:19:54;9.87;;;6.80;;
63807;SDS011;49961;43.970;22.868;2023-04-24T02:20:54;7.80;;;6.67;;
63807;SDS011;49961;43.970;22.868;2023-04-24T02:21:55;11.17;;;6.70;;
63807;SDS011;49961;43.970;22.868;2023-04-24T02:22:55;11.60;;;7.13;;
63807;SDS011;49961;43.970;22.868;2023-04-24T02:23:56;11.40;;;7.13;;
63807;SDS011;49961;43.970;22.868;2023-04-24T02:24:56;8.50;;;7.10;;
63807;SDS011;49961;43.970;22.868;2023-04-24T02:25:57;7.83;;;6.67;;
63807;SDS011;49961;43.970;22.868;2023-04-24T02:26:57;16.03;;;7.83;;
63807;SDS011;49961;43.970;22.868;2023-04-24T02:27:58;10.10;;;7.00;;
63807;SDS011;49961;43.970;22.868;2023-04-24T02:28:58;8.53;;;6.87;;
63807;SDS011;49961;43.970;22.868;2023-04-24T02:29:59;8.17;;;6.53;;
63807;SDS011;49961;43.970;22.868;2023-04-24T02:31:00;14.63;;;8.10;;
63807;SDS011;49961;43.970;22.868;2023-04-24T02:32:01;14.77;;;7.90;;
63807;SDS011;49961;43.970;22.868;2023-04-24T02:33:01;13.20;;;7.40;;
63807;SDS011;49961;43.970;22.868;2023-04-24T02:34:02;15.43;;;7.30;;
63807;SDS011;49961;43.970;22.868;2023-04-24T02:35:02;12.73;;;6.97;;
63807;SDS011;49961;43.970;22.868;2023-04-24T02:36:03;12.80;;;7.67;;
63807;SDS011;49961;43.970;22.868;2023-04-24T02:37:03;13.00;;;6.93;;
63807;SDS011;49961;43.970;22.868;2023-04-24T02:38:04;12.20;;;6.63;;
63807;SDS011;49961;43.970;22.868;2023-04-24T02:39:05;8.90;;;6.50;;
63807;SDS011;49961;43.970;22.868;2023-04-24T02:40:05;11.80;;;7.30;;
63807;SDS011;49961;43.970;22.868;2023-04-24T02:41:07;8.43;;;6.43;;
63807;SDS011;49961;43.970;22.868;2023-04-24T02:42:07;7.60;;;6.80;;
63807;SDS011;49961;43.970;22.868;2023-04-24T02:43:08;9.53;;;6.30;;
63807;SDS011;49961;43.970;22.868;2023-04-24T02:44:09;8.87;;;6.70;;
63807;SDS011;49961;43.970;22.868;2023-04-24T02:45:09;8.47;;;6.50;;
63807;SDS011;49961;43.970;22.868;2023-04-24T02:46:10;7.40;;;6.63;;
63807;SDS011;49961;43.970;22.868;2023-04-24T02:47:11;8.47;;;6.40;;
63807;SDS011;49961;43.970;22.868;2023-04-24T02:48:11;7.27;;;6.40;;
63807;SDS011;49961;43.970;22.868;2023-04-24T02:49:11;7.43;;;6.23;;
63807;SDS011;49961;43.970;22.868;2023-04-24T02:50:12;11.43;;;6.50;;
63807;SDS011;49961;43.970;22.868;2023-04-24T02:51:12;6.67;;;5.63;;
63807;SDS011;49961;43.970;22.868;2023-04-24T02:52:13;9.17;;;6.27;;
63807;SDS011;49961;43.970;22.868;2023-04-24T02:53:14;6.57;;;5.90;;
63807;SDS011;49961;43.970;22.868;2023-04-24T02:54:15;8.50;;;6.63;;
63807;SDS011;49961;43.970;22.868;2023-04-24T02:55:15;12.40;;;6.57;;
63807;SDS011;49961;43.970;22.868;2023-04-24T02:56:15;10.23;;;6.57;;
63807;SDS011;49961;43.970;22.868;2023-04-24T02:57:16;12.40;;;7.17;;
63807;SDS011;49961;43.970;22.868;2023-04-24T02:58:16;9.57;;;6.57;;
63807;SDS011;49961;43.970;22.868;2023-04-24T02:59:19;7.83;;;6.63;;
63807;SDS011;49961;43.970;22.868;2023-04-24T03:00:20;9.83;;;6.73;;
63807;SDS011;49961;43.970;22.868;2023-04-24T03:01:20;10.00;;;6.33;;
63807;SDS011;49961;43.970;22.868;2023-04-24T03:02:21;12.27;;;6.67;;
63807;SDS011;49961;43.970;22.868;2023-04-24T03:03:21;12.63;;;6.73;;
63807;SDS011;49961;43.970;22.868;2023-04-24T03:04:22;9.13;;;6.97;;
63807;SDS011;49961;43.970;22.868;2023-04-24T03:05:23;12.47;;;6.97;;
63807;SDS011;49961;43.970;22.868;2023-04-24T03:06:23;12.10;;;7.20;;
63807;SDS011;49961;43.970;22.868;2023-04-24T03:07:24;9.43;;;6.83;;
63807;SDS011;49961;43.970;22.868;2023-04-24T03:08:24;11.30;;;6.53;;
63807;SDS011;49961;43.970;22.868;2023-04-24T03:09:24;10.53;;;6.43;;
63807;SDS011;49961;43.970;22.868;2023-04-24T03:10:25;7.73;;;6.40;;
63807;SDS011;49961;43.970;22.868;2023-04-24T03:11:25;10.17;;;6.63;;
63807;SDS011;49961;43.970;22.868;2023-04-24T03:12:26;10.83;;;6.53;;
63807;SDS011;49961;43.970;22.868;2023-04-24T03:13:26;10.73;;;6.70;;
63807;SDS011;49961;43.970;22.868;2023-04-24T03:14:26;8.40;;;6.50;;
63807;SDS011;49961;43.970;22.868;2023-04-24T03:15:27;11.63;;;6.50;;
63807;SDS011;49961;43.970;22.868;2023-04-24T03:16:28;9.80;;;7.00;;
63807;SDS011;49961;43.970;22.868;2023-04-24T03:17:28;10.87;;;6.20;;
63807;SDS011;49961;43.970;22.868;2023-04-24T03:18:28;11.70;;;6.90;;
63807;SDS011;49961;43.970;22.868;2023-04-24T03:19:29;13.37;;;6.13;;
63807;SDS011;49961;43.970;22.868;2023-04-24T03:20:30;16.47;;;6.70;;
63807;SDS011;49961;43.970;22.868;2023-04-24T03:21:30;14.30;;;6.80;;
63807;SDS011;49961;43.970;22.868;2023-04-24T03:22:31;12.53;;;7.03;;
63807;SDS011;49961;43.970;22.868;2023-04-24T03:23:32;13.23;;;7.23;;
63807;SDS011;49961;43.970;22.868;2023-04-24T03:24:33;13.63;;;6.80;;
63807;SDS011;49961;43.970;22.868;2023-04-24T03:25:33;13.23;;;6.63;;
63807;SDS011;49961;43.970;22.868;2023-04-24T03:26:33;13.63;;;6.83;;
63807;SDS011;49961;43.970;22.868;2023-04-24T03:27:34;9.70;;;6.13;;
63807;SDS011;49961;43.970;22.868;2023-04-24T03:28:34;11.10;;;7.13;;
63807;SDS011;49961;43.970;22.868;2023-04-24T03:29:35;10.60;;;6.57;;
63807;SDS011;49961;43.970;22.868;2023-04-24T03:30:35;8.97;;;6.73;;
63807;SDS011;49961;43.970;22.868;2023-04-24T03:31:36;11.00;;;6.20;;
63807;SDS011;49961;43.970;22.868;2023-04-24T03:32:36;9.87;;;7.20;;
63807;SDS011;49961;43.970;22.868;2023-04-24T03:33:36;7.23;;;6.40;;
63807;SDS011;49961;43.970;22.868;2023-04-24T03:34:37;7.40;;;6.70;;
63807;SDS011;49961;43.970;22.868;2023-04-24T03:35:37;8.33;;;6.20;;
63807;SDS011;49961;43.970;22.868;2023-04-24T03:36:38;8.50;;;6.40;;
63807;SDS011;49961;43.970;22.868;2023-04-24T03:37:38;7.97;;;6.90;;
63807;SDS011;49961;43.970;22.868;2023-04-24T03:38:38;11.40;;;6.90;;
63807;SDS011;49961;43.970;22.868;2023-04-24T03:39:39;8.43;;;6.70;;
63807;SDS011;49961;43.970;22.868;2023-04-24T03:40:39;7.90;;;6.90;;
63807;SDS011;49961;43.970;22.868;2023-04-24T03:41:40;7.07;;;6.30;;
63807;SDS011;49961;43.970;22.868;2023-04-24T03:42:40;7.07;;;5.93;;
63807;SDS011;49961;43.970;22.868;2023-04-24T03:43:40;8.87;;;7.20;;
63807;SDS011;49961;43.970;22.868;2023-04-24T03:44:41;12.30;;;6.90;;
63807;SDS011;49961;43.970;22.868;2023-04-24T03:45:41;10.87;;;7.43;;
63807;SDS011;49961;43.970;22.868;2023-04-24T03:46:42;9.37;;;7.57;;
63807;SDS011;49961;43.970;22.868;2023-04-24T03:47:42;7.60;;;6.80;;
63807;SDS011;49961;43.970;22.868;2023-04-24T03:48:43;8.27;;;6.87;;
63807;SDS011;49961;43.970;22.868;2023-04-24T03:49:43;7.40;;;6.37;;
63807;SDS011;49961;43.970;22.868;2023-04-24T03:50:44;8.67;;;7.07;;
63807;SDS011;49961;43.970;22.868;2023-04-24T03:51:44;11.67;;;7.27;;
63807;SDS011;49961;43.970;22.868;2023-04-24T03:52:45;7.70;;;6.90;;
63807;SDS011;49961;43.970;22.868;2023-04-24T03:53:45;11.13;;;7.73;;
63807;SDS011;49961;43.970;22.868;2023-04-24T03:54:46;8.47;;;6.90;;
63807;SDS011;49961;43.970;22.868;2023-04-24T03:55:46;8.50;;;7.70;;
63807;SDS011;49961;43.970;22.868;2023-04-24T03:56:46;9.50;;;7.00;;
63807;SDS011;49961;43.970;22.868;2023-04-24T03:57:47;10.87;;;7.53;;
63807;SDS011;49961;43.970;22.868;2023-04-24T03:58:47;8.07;;;6.70;;
63807;SDS011;49961;43.970;22.868;2023-04-24T03:59:48;10.87;;;7.23;;
63807;SDS011;49961;43.970;22.868;2023-04-24T04:00:48;8.50;;;7.07;;
63807;SDS011;49961;43.970;22.868;2023-04-24T04:01:49;11.73;;;7.50;;
63807;SDS011;49961;43.970;22.868;2023-04-24T04:02:50;9.93;;;8.20;;
63807;SDS011;49961;43.970;22.868;2023-04-24T04:03:50;9.13;;;7.90;;
63807;SDS011;49961;43.970;22.868;2023-04-24T04:04:50;9.17;;;8.03;;
63807;SDS011;49961;43.970;22.868;2023-04-24T04:05:51;13.30;;;8.87;;
63807;SDS011;49961;43.970;22.868;2023-04-24T04:06:51;9.77;;;7.77;;
63807;SDS011;49961;43.970;22.868;2023-04-24T04:07:53;10.37;;;8.13;;
63807;SDS011;49961;43.970;22.868;2023-04-24T04:08:53;10.60;;;8.20;;
63807;SDS011;49961;43.970;22.868;2023-04-24T04:09:54;14.80;;;8.90;;
63807;SDS011;49961;43.970;22.868;2023-04-24T04:10:54;13.93;;;8.37;;
63807;SDS011;49961;43.970;22.868;2023-04-24T04:11:54;12.47;;;8.60;;
63807;SDS011;49961;43.970;22.868;2023-04-24T04:12:55;9.40;;;7.67;;
63807;SDS011;49961;43.970;22.868;2023-04-24T04:13:55;10.20;;;7.90;;
63807;SDS011;49961;43.970;22.868;2023-04-24T04:14:56;9.93;;;7.53;;
63807;SDS011;49961;43.970;22.868;2023-04-24T04:15:57;9.97;;;7.53;;
63807;SDS011;49961;43.970;22.868;2023-04-24T04:16:57;10.40;;;8.37;;
63807;SDS011;49961;43.970;22.868;2023-04-24T04:17:58;10.63;;;7.80;;
63807;SDS011;49961;43.970;22.868;2023-04-24T04:18:58;10.83;;;8.00;;
63807;SDS011;49961;43.970;22.868;2023-04-24T04:20:17;13.90;;;8.47;;
63807;SDS011;49961;43.970;22.868;2023-04-24T04:21:17;13.00;;;7.93;;
63807;SDS011;49961;43.970;22.868;2023-04-24T04:22:18;14.37;;;7.60;;
63807;SDS011;49961;43.970;22.868;2023-04-24T04:23:18;11.10;;;8.00;;
63807;SDS011;49961;43.970;22.868;2023-04-24T04:24:19;12.23;;;7.87;;
63807;SDS011;49961;43.970;22.868;2023-04-24T04:25:20;9.33;;;8.20;;
63807;SDS011;49961;43.970;22.868;2023-04-24T04:26:21;11.30;;;8.00;;
63807;SDS011;49961;43.970;22.868;2023-04-24T04:27:25;9.50;;;8.27;;
63807;SDS011;49961;43.970;22.868;2023-04-24T04:28:26;9.10;;;8.07;;
63807;SDS011;49961;43.970;22.868;2023-04-24T04:29:27;14.00;;;8.67;;
63807;SDS011;49961;43.970;22.868;2023-04-24T04:30:27;13.90;;;7.90;;
63807;SDS011;49961;43.970;22.868;2023-04-24T04:31:29;10.60;;;7.87;;
63807;SDS011;49961;43.970;22.868;2023-04-24T04:32:31;10.83;;;7.33;;
63807;SDS011;49961;43.970;22.868;2023-04-24T04:33:33;10.17;;;6.97;;
63807;SDS011;49961;43.970;22.868;2023-04-24T04:34:33;11.93;;;7.50;;
63807;SDS011;49961;43.970;22.868;2023-04-24T04:35:34;8.83;;;6.90;;
63807;SDS011;49961;43.970;22.868;2023-04-24T04:36:35;8.63;;;7.00;;
63807;SDS011;49961;43.970;22.868;2023-04-24T04:37:36;8.90;;;6.73;;
63807;SDS011;49961;43.970;22.868;2023-04-24T04:38:38;7.40;;;6.47;;
63807;SDS011;49961;43.970;22.868;2023-04-24T04:39:38;7.67;;;6.80;;
63807;SDS011;49961;43.970;22.868;2023-04-24T04:40:38;8.83;;;7.20;;
63807;SDS011;49961;43.970;22.868;2023-04-24T04:41:40;9.30;;;6.90;;
63807;SDS011;49961;43.970;22.868;2023-04-24T04:42:41;7.47;;;6.77;;
63807;SDS011;49961;43.970;22.868;2023-04-24T04:43:42;9.30;;;6.90;;
63807;SDS011;49961;43.970;22.868;2023-04-24T04:44:42;8.67;;;6.90;;
63807;SDS011;49961;43.970;22.868;2023-04-24T04:45:44;11.50;;;6.97;;
63807;SDS011;49961;43.970;22.868;2023-04-24T04:46:45;10.63;;;6.90;;
63807;SDS011;49961;43.970;22.868;2023-04-24T04:47:46;12.10;;;8.17;;
63807;SDS011;49961;43.970;22.868;2023-04-24T04:48:46;10.97;;;7.43;;
63807;SDS011;49961;43.970;22.868;2023-04-24T04:49:47;10.87;;;8.50;;
63807;SDS011;49961;43.970;22.868;2023-04-24T04:50:48;9.73;;;7.83;;
63807;SDS011;49961;43.970;22.868;2023-04-24T04:51:48;24.07;;;8.83;;
63807;SDS011;49961;43.970;22.868;2023-04-24T04:52:50;19.40;;;9.23;;
63807;SDS011;49961;43.970;22.868;2023-04-24T04:53:51;18.10;;;9.00;;
63807;SDS011;49961;43.970;22.868;2023-04-24T04:54:51;19.50;;;8.13;;
63807;SDS011;49961;43.970;22.868;2023-04-24T04:55:52;17.07;;;7.57;;
63807;SDS011;49961;43.970;22.868;2023-04-24T04:56:52;12.73;;;7.90;;
63807;SDS011;49961;43.970;22.868;2023-04-24T04:57:53;14.47;;;7.70;;
63807;SDS011;49961;43.970;22.868;2023-04-24T04:58:53;14.43;;;7.53;;
63807;SDS011;49961;43.970;22.868;2023-04-24T04:59:54;10.57;;;6.77;;
63807;SDS011;49961;43.970;22.868;2023-04-24T05:00:54;13.87;;;7.67;;
63807;SDS011;49961;43.970;22.868;2023-04-24T05:01:55;8.77;;;6.27;;
63807;SDS011;49961;43.970;22.868;2023-04-24T05:02:55;10.87;;;6.87;;
63807;SDS011;49961;43.970;22.868;2023-04-24T05:03:56;9.37;;;5.90;;
63807;SDS011;49961;43.970;22.868;2023-04-24T05:04:56;12.00;;;6.03;;
63807;SDS011;49961;43.970;22.868;2023-04-24T05:05:57;8.27;;;6.07;;
63807;SDS011;49961;43.970;22.868;2023-04-24T05:06:58;12.47;;;6.20;;
63807;SDS011;49961;43.970;22.868;2023-04-24T05:07:58;7.53;;;6.07;;
63807;SDS011;49961;43.970;22.868;2023-04-24T05:08:59;9.80;;;6.40;;
63807;SDS011;49961;43.970;22.868;2023-04-24T05:09:59;8.73;;;6.50;;
63807;SDS011;49961;43.970;22.868;2023-04-24T05:10:59;9.10;;;6.70;;
63807;SDS011;49961;43.970;22.868;2023-04-24T05:12:00;11.00;;;7.60;;
63807;SDS011;49961;43.970;22.868;2023-04-24T05:13:02;9.77;;;7.60;;
63807;SDS011;49961;43.970;22.868;2023-04-24T05:14:03;7.67;;;6.23;;
63807;SDS011;49961;43.970;22.868;2023-04-24T05:15:04;8.50;;;6.20;;
63807;SDS011;49961;43.970;22.868;2023-04-24T05:16:05;8.57;;;6.20;;
63807;SDS011;49961;43.970;22.868;2023-04-24T05:17:06;16.70;;;6.90;;
63807;SDS011;49961;43.970;22.868;2023-04-24T05:18:06;13.57;;;6.43;;
63807;SDS011;49961;43.970;22.868;2023-04-24T05:19:07;10.53;;;6.53;;
63807;SDS011;49961;43.970;22.868;2023-04-24T05:20:08;8.90;;;6.50;;
63807;SDS011;49961;43.970;22.868;2023-04-24T05:21:09;25.93;;;7.77;;
63807;SDS011;49961;43.970;22.868;2023-04-24T05:22:10;12.90;;;6.53;;
63807;SDS011;49961;43.970;22.868;2023-04-24T05:23:11;12.00;;;6.57;;
63807;SDS011;49961;43.970;22.868;2023-04-24T05:24:11;13.40;;;6.97;;
63807;SDS011;49961;43.970;22.868;2023-04-24T05:25:12;10.43;;;6.73;;
63807;SDS011;49961;43.970;22.868;2023-04-24T05:26:13;13.87;;;7.07;;
63807;SDS011;49961;43.970;22.868;2023-04-24T05:27:14;10.33;;;6.60;;
63807;SDS011;49961;43.970;22.868;2023-04-24T05:28:15;8.63;;;6.63;;
63807;SDS011;49961;43.970;22.868;2023-04-24T05:29:15;8.67;;;7.17;;
63807;SDS011;49961;43.970;22.868;2023-04-24T05:30:16;9.80;;;6.90;;
63807;SDS011;49961;43.970;22.868;2023-04-24T05:31:16;7.87;;;6.87;;
63807;SDS011;49961;43.970;22.868;2023-04-24T05:32:17;9.70;;;7.30;;
63807;SDS011;49961;43.970;22.868;2023-04-24T05:33:18;11.80;;;7.60;;
63807;SDS011;49961;43.970;22.868;2023-04-24T05:34:18;8.67;;;6.90;;
63807;SDS011;49961;43.970;22.868;2023-04-24T05:35:18;8.33;;;7.17;;
63807;SDS011;49961;43.970;22.868;2023-04-24T05:36:19;8.53;;;7.60;;
63807;SDS011;49961;43.970;22.868;2023-04-24T05:37:19;9.67;;;7.70;;
63807;SDS011;49961;43.970;22.868;2023-04-24T05:38:20;9.03;;;7.70;;
63807;SDS011;49961;43.970;22.868;2023-04-24T05:39:21;9.00;;;8.03;;
63807;SDS011;49961;43.970;22.868;2023-04-24T05:40:21;9.67;;;6.90;;
63807;SDS011;49961;43.970;22.868;2023-04-24T05:41:21;8.63;;;7.47;;
63807;SDS011;49961;43.970;22.868;2023-04-24T05:42:22;16.70;;;10.57;;
63807;SDS011;49961;43.970;22.868;2023-04-24T05:43:23;10.53;;;8.07;;
63807;SDS011;49961;43.970;22.868;2023-04-24T05:44:23;9.27;;;7.37;;
63807;SDS011;49961;43.970;22.868;2023-04-24T05:45:23;9.90;;;7.97;;
63807;SDS011;49961;43.970;22.868;2023-04-24T05:46:25;14.97;;;11.33;;
63807;SDS011;49961;43.970;22.868;2023-04-24T05:47:25;14.10;;;9.00;;
63807;SDS011;49961;43.970;22.868;2023-04-24T05:48:26;10.90;;;8.20;;
63807;SDS011;49961;43.970;22.868;2023-04-24T05:49:26;10.77;;;9.67;;
63807;SDS011;49961;43.970;22.868;2023-04-24T05:50:27;9.40;;;8.07;;
63807;SDS011;49961;43.970;22.868;2023-04-24T05:51:27;10.57;;;7.83;;
63807;SDS011;49961;43.970;22.868;2023-04-24T05:52:28;11.30;;;8.23;;
63807;SDS011;49961;43.970;22.868;2023-04-24T05:53:28;11.63;;;10.37;;
63807;SDS011;49961;43.970;22.868;2023-04-24T05:54:29;12.33;;;9.70;;
63807;SDS011;49961;43.970;22.868;2023-04-24T05:55:30;9.40;;;8.23;;
63807;SDS011;49961;43.970;22.868;2023-04-24T05:56:31;9.57;;;8.00;;
63807;SDS011;49961;43.970;22.868;2023-04-24T05:57:31;10.00;;;7.90;;
63807;SDS011;49961;43.970;22.868;2023-04-24T05:58:32;10.23;;;8.10;;